Aeroporto :
LOGIN :

Iscrizione | Disclaimer

   EN    FR    IT 

 










Sommario :    VFR   VFR Marginale   IFR   IFR Intensivo   IFR Molto Intensivo
Visibilità : 
Base nubi : 
>= 8 km
>= 3000ft
5 / 8 km
1000 / 3000 ft
1500m / 5 km
500 / 1000 ft
800 / 1500m
200 / 500 ft
< 800m
< 200 ft
Simboli :   Temporali  Nebbia  Neve Forte  Precipitazioni Forti  Vento > 20 kt
SIGMETs :   Varie  Temporali  Ghiacco  Turbolenza  Onda orograficha  Ceneri Vulcaniche






- Altitudine del aeroporto : 870 ft
- Codice IATA : ETZ


LFJL - Metz Nancy Lorraine

ULTIMO METAR :
  • 172200Z AUTO 24019KT 9999 FEW016/// BKN048/// ///TCU 06/04 Q1023 TEMPO 25015G25KT 3000 SHRA FEW020CB

METARs OBSOLETI :
  • 172130Z AUTO 24018KT 9999 FEW016 06/04 Q1022 TEMPO 25015G25KT 3000 SHRA FEW020CB
  • 172100Z AUTO 24017KT CAVOK 06/04 Q1022 TEMPO 25015G25KT 3000 SHRA FEW020CB
  • 172030Z AUTO 24016KT 9999 FEW018 SCT054 06/04 Q1022 TEMPO 25015G25KT 3000 SHRA FEW020CB
  • 172000Z AUTO 23015KT 9999 OVC019 06/04 Q1021 TEMPO 25015G25KT FEW025TCU
  • 171930Z AUTO 23016KT 9999 FEW021 BKN100 OVC120 06/04 Q1021 TEMPO 25015G25KT FEW025TCU

TAF TAF LFJL
Valido dal 17 a 18 ore il 18 a 18 ore UTC


171700Z 1718/1818 24015KT 9999 BKN035
TEMPO 1718/1805 25015G25KT -SHRA FEW025TCU
PROB30
TEMPO 1722/1801 3000 SHRA FEW020CB
PROB40
TEMPO 1812/1818 24015G25KT -SHRA FEW025TCU



MetMap, La meteo Aeronautica in un colpo d'occhio ! - Copyright ORBIFLY Dicembre 2007 - Disclaimer

ORBIFLY MET'MAP TEAM :

Programmazione e sviluppo : Alexandra Zaïnal
Concezione : Baudouin d'Aumeries
Aiuto per la programmazione : Marc-Olivier Méhu
Supporto tecnico e logistico : Manuel Goepfert
Aiuto per la traduzione : Arnaldo La Scala

Contatto : metmap@orbifly.com




FONTI E CREDITI :

   NOAA